createdAt,value
2018-09-11T00:00:06.926Z,0
2018-09-11T00:01:07.602Z,0
2018-09-11T00:02:08.275Z,0
2018-09-11T00:03:08.949Z,0
2018-09-11T00:04:09.622Z,0
2018-09-11T00:05:10.298Z,0
2018-09-11T00:06:10.970Z,0
2018-09-11T00:07:11.645Z,0
2018-09-11T00:08:12.318Z,0
2018-09-11T00:09:12.991Z,0
2018-09-11T00:10:13.665Z,0
2018-09-11T00:11:14.340Z,0
2018-09-11T00:12:15.014Z,0
2018-09-11T00:13:15.692Z,0
2018-09-11T00:14:16.362Z,0
2018-09-11T00:15:17.039Z,0
2018-09-11T00:16:17.711Z,0
2018-09-11T00:17:18.386Z,0
2018-09-11T00:18:19.058Z,0
2018-09-11T00:19:19.734Z,0
2018-09-11T00:20:20.406Z,0
2018-09-11T00:21:21.079Z,0
2018-09-11T00:22:21.755Z,0
2018-09-11T00:23:22.429Z,0
2018-09-11T00:24:23.101Z,0
2018-09-11T00:25:23.776Z,0
2018-09-11T00:26:24.464Z,0
2018-09-11T00:27:25.165Z,0
2018-09-11T00:28:25.839Z,0
2018-09-11T00:29:26.513Z,0
2018-09-11T00:30:27.188Z,0
2018-09-11T00:31:27.864Z,0
2018-09-11T00:32:28.580Z,0
2018-09-11T00:33:29.254Z,0
2018-09-11T00:34:29.927Z,0
2018-09-11T00:35:30.600Z,0
2018-09-11T00:36:31.275Z,0
2018-09-11T00:37:31.949Z,0
2018-09-11T00:38:32.623Z,0
2018-09-11T00:39:33.298Z,0
2018-09-11T00:40:33.975Z,0
2018-09-11T00:41:34.646Z,0
2018-09-11T00:42:35.322Z,0
2018-09-11T00:43:35.995Z,0
2018-09-11T00:44:36.666Z,0
2018-09-11T00:45:37.341Z,0
2018-09-11T00:46:38.015Z,0
2018-09-11T00:47:38.730Z,0
2018-09-11T00:48:39.404Z,0
2018-09-11T00:49:40.077Z,0
2018-09-11T00:50:40.750Z,0
2018-09-11T00:51:41.439Z,0
2018-09-11T00:52:42.098Z,0
2018-09-11T00:53:42.772Z,0
2018-09-11T00:54:43.444Z,0
2018-09-11T00:55:44.118Z,0
2018-09-11T00:56:44.795Z,0
2018-09-11T00:57:45.512Z,0
2018-09-11T00:58:46.185Z,0
2018-09-11T00:59:46.860Z,0
2018-09-11T01:00:47.533Z,0
2018-09-11T01:01:48.206Z,0
2018-09-11T01:02:48.881Z,0
2018-09-11T01:03:49.553Z,0
2018-09-11T01:04:50.229Z,0
2018-09-11T01:05:50.941Z,0
2018-09-11T01:06:51.614Z,0
2018-09-11T01:07:52.289Z,0
2018-09-11T01:08:52.965Z,0
2018-09-11T01:09:53.639Z,0
2018-09-11T01:10:54.312Z,0
2018-09-11T01:11:54.985Z,0
2018-09-11T01:12:55.658Z,0
2018-09-11T01:13:56.332Z,0
2018-09-11T01:14:57.006Z,0
2018-09-11T01:15:57.720Z,0
2018-09-11T01:16:58.394Z,0
2018-09-11T01:17:59.067Z,0
2018-09-11T01:18:59.741Z,0
2018-09-11T01:20:00.415Z,0
2018-09-11T01:21:01.088Z,0
2018-09-11T01:22:01.762Z,0
2018-09-11T01:23:02.435Z,0
2018-09-11T01:24:03.108Z,0
2018-09-11T01:25:03.784Z,0
2018-09-11T01:26:04.455Z,0
2018-09-11T01:27:05.127Z,0
2018-09-11T01:28:05.800Z,0
2018-09-11T01:29:06.474Z,0
2018-09-11T01:30:07.150Z,0
2018-09-11T01:31:07.821Z,0
2018-09-11T01:32:08.499Z,0
2018-09-11T01:33:09.169Z,0
2018-09-11T01:34:09.842Z,0
2018-09-11T01:35:10.515Z,0
2018-09-11T01:36:11.190Z,0
2018-09-11T01:37:11.863Z,0
2018-09-11T01:38:12.537Z,0
2018-09-11T01:39:13.211Z,0
2018-09-11T01:40:13.885Z,0
2018-09-11T01:41:14.600Z,0
2018-09-11T01:42:15.275Z,0
2018-09-11T01:43:15.978Z,0
2018-09-11T01:44:16.664Z,0
2018-09-11T01:45:17.340Z,0
2018-09-11T01:46:18.015Z,0
2018-09-11T01:47:18.685Z,0
2018-09-11T01:48:19.360Z,0
2018-09-11T01:49:20.075Z,0
2018-09-11T01:50:20.753Z,0
2018-09-11T01:51:21.567Z,0
2018-09-11T01:52:22.178Z,0
2018-09-11T01:53:22.850Z,0
2018-09-11T01:54:23.524Z,0
2018-09-11T01:55:24.198Z,0
2018-09-11T01:56:24.870Z,0
2018-09-11T01:57:25.544Z,0
2018-09-11T01:58:26.217Z,0
2018-09-11T01:59:26.889Z,0
2018-09-11T02:00:27.567Z,0
2018-09-11T02:01:28.237Z,0
2018-09-11T02:02:28.914Z,0
2018-09-11T02:03:29.629Z,0
2018-09-11T02:04:30.341Z,0
2018-09-11T02:05:31.013Z,0
2018-09-11T02:06:31.688Z,0
2018-09-11T02:07:32.358Z,0
2018-09-11T02:08:33.029Z,0
2018-09-11T02:09:33.702Z,0
2018-09-11T02:10:34.375Z,0
2018-09-11T02:11:35.048Z,0
2018-09-11T02:12:35.725Z,0
2018-09-11T02:13:36.438Z,0
2018-09-11T02:14:37.112Z,0
2018-09-11T02:15:37.785Z,0
2018-09-11T02:16:38.455Z,0
2018-09-11T02:17:39.170Z,0
2018-09-11T02:18:39.844Z,0
2018-09-11T02:19:40.517Z,0
2018-09-11T02:20:41.188Z,0
2018-09-11T02:21:41.872Z,0
2018-09-11T02:22:42.578Z,0
2018-09-11T02:23:43.454Z,0
2018-09-11T02:24:44.126Z,0
2018-09-11T02:25:44.800Z,0
2018-09-11T02:26:45.473Z,0
2018-09-11T02:27:46.145Z,0
2018-09-11T02:28:46.820Z,0
2018-09-11T02:29:47.492Z,0
2018-09-11T02:30:49.370Z,0
2018-09-11T02:31:50.043Z,0
2018-09-11T02:32:50.716Z,0
2018-09-11T02:33:51.389Z,0
2018-09-11T02:34:52.061Z,0
2018-09-11T02:35:52.860Z,0
2018-09-11T02:36:53.409Z,0
2018-09-11T02:37:54.082Z,0
2018-09-11T02:38:54.757Z,0
2018-09-11T02:39:55.428Z,0
2018-09-11T02:40:56.104Z,0
2018-09-11T02:41:56.777Z,0
2018-09-11T02:42:57.451Z,0
2018-09-11T02:43:58.124Z,0
2018-09-11T02:44:58.795Z,0
2018-09-11T02:45:59.471Z,0
2018-09-11T02:47:00.144Z,0
2018-09-11T02:48:00.816Z,0
2018-09-11T02:49:01.490Z,0
2018-09-11T02:50:02.160Z,0
2018-09-11T02:51:02.831Z,0
2018-09-11T02:52:03.504Z,0
2018-09-11T02:53:04.178Z,0
2018-09-11T02:54:04.850Z,0
2018-09-11T02:55:05.566Z,0
2018-09-11T02:56:06.238Z,0
2018-09-11T02:57:06.915Z,0
2018-09-11T02:58:07.584Z,0
2018-09-11T02:59:08.257Z,0
2018-09-11T03:00:08.930Z,0
2018-09-11T03:01:09.603Z,0
2018-09-11T03:02:10.274Z,0
2018-09-11T03:03:10.950Z,0
2018-09-11T03:04:11.622Z,0
2018-09-11T03:05:12.295Z,0
2018-09-11T03:06:12.965Z,0
2018-09-11T03:07:13.638Z,0
2018-09-11T03:08:14.310Z,0
2018-09-11T03:09:14.984Z,0
2018-09-11T03:10:15.657Z,0
2018-09-11T03:11:16.330Z,0
2018-09-11T03:12:17.001Z,0
2018-09-11T03:13:17.674Z,0
2018-09-11T03:14:18.350Z,0
2018-09-11T03:15:19.018Z,0
2018-09-11T03:16:19.690Z,0
2018-09-11T03:17:20.362Z,0
2018-09-11T03:18:21.042Z,0
2018-09-11T03:19:21.748Z,0
2018-09-11T03:20:22.419Z,0
2018-09-11T03:21:23.094Z,0
2018-09-11T03:22:23.768Z,0
2018-09-11T03:23:24.440Z,0
2018-09-11T03:24:25.113Z,0
2018-09-11T03:25:25.783Z,0
2018-09-11T03:26:26.458Z,0
2018-09-11T03:27:27.130Z,0
2018-09-11T03:28:27.802Z,0
2018-09-11T03:29:28.474Z,0
2018-09-11T03:30:29.146Z,0
2018-09-11T03:31:29.819Z,0
2018-09-11T03:32:30.491Z,0
2018-09-11T03:33:31.165Z,0
2018-09-11T03:34:31.837Z,0
2018-09-11T03:35:32.513Z,0
2018-09-11T03:36:33.223Z,0
2018-09-11T03:37:33.896Z,0
2018-09-11T03:38:34.569Z,0
2018-09-11T03:39:35.243Z,0
2018-09-11T03:40:35.912Z,0
2018-09-11T03:41:36.586Z,0
2018-09-11T03:42:37.260Z,0
2018-09-11T03:43:37.931Z,0
2018-09-11T03:44:38.605Z,0
2018-09-11T03:45:39.278Z,0
2018-09-11T03:46:39.952Z,0
2018-09-11T03:47:40.624Z,0
2018-09-11T03:48:41.296Z,0
2018-09-11T03:49:42.017Z,0
2018-09-11T03:50:42.688Z,0
2018-09-11T03:51:43.361Z,0
2018-09-11T03:52:44.033Z,0
2018-09-11T03:53:44.705Z,0
2018-09-11T03:54:45.376Z,0
2018-09-11T03:55:46.050Z,0
2018-09-11T03:56:46.723Z,0
2018-09-11T03:57:47.397Z,0
2018-09-11T03:58:48.069Z,0
2018-09-11T03:59:48.741Z,0
2018-09-11T04:00:49.413Z,0
2018-09-11T04:01:50.088Z,0
2018-09-11T04:02:50.760Z,0
2018-09-11T04:03:51.434Z,0
2018-09-11T04:04:52.105Z,0
2018-09-11T04:05:52.777Z,0
2018-09-11T04:06:53.450Z,0
2018-09-11T04:07:54.125Z,0
2018-09-11T04:08:54.846Z,0
2018-09-11T04:09:55.518Z,0
2018-09-11T04:10:56.189Z,0
2018-09-11T04:11:56.865Z,0
2018-09-11T04:12:57.543Z,0
2018-09-11T04:13:58.212Z,0
2018-09-11T04:14:58.885Z,0
2018-09-11T04:15:59.557Z,0
2018-09-11T04:17:00.231Z,0
2018-09-11T04:18:00.905Z,0
2018-09-11T04:19:01.577Z,4
2018-09-11T04:20:02.250Z,4
2018-09-11T04:21:02.925Z,4
2018-09-11T04:22:03.594Z,4
2018-09-11T04:23:04.267Z,4
2018-09-11T04:24:04.941Z,8
2018-09-11T04:25:05.613Z,8
2018-09-11T04:26:06.287Z,8
2018-09-11T04:27:06.960Z,12
2018-09-11T04:28:07.632Z,12
2018-09-11T04:29:08.308Z,16
2018-09-11T04:30:08.981Z,16
2018-09-11T04:31:09.655Z,20
2018-09-11T04:32:10.328Z,24
2018-09-11T04:33:11.001Z,28
2018-09-11T04:34:11.676Z,32
2018-09-11T04:35:12.349Z,36
2018-09-11T04:36:13.076Z,44
2018-09-11T04:37:13.697Z,48
2018-09-11T04:38:14.369Z,56
2018-09-11T04:39:15.045Z,60
2018-09-11T04:40:15.717Z,68
2018-09-11T04:41:16.391Z,76
2018-09-11T04:42:17.063Z,80
2018-09-11T04:43:17.736Z,96
2018-09-11T04:44:18.454Z,104
2018-09-11T04:45:19.129Z,124
2018-09-11T04:46:19.803Z,140
2018-09-11T04:47:20.476Z,160
2018-09-11T04:48:21.150Z,176
2018-09-11T04:49:21.830Z,204
2018-09-11T04:50:22.500Z,232
2018-09-11T04:51:23.176Z,260
2018-09-11T04:52:23.851Z,284
2018-09-11T04:53:24.569Z,308
2018-09-11T04:54:25.242Z,332
2018-09-11T04:55:25.916Z,356
2018-09-11T04:56:26.593Z,376
2018-09-11T04:57:27.271Z,408
2018-09-11T04:58:27.945Z,444
2018-09-11T04:59:28.621Z,488
2018-09-11T05:00:29.296Z,532
2018-09-11T05:01:29.974Z,580
2018-09-11T05:02:30.649Z,640
2018-09-11T05:03:31.325Z,704
2018-09-11T05:04:32.001Z,772
2018-09-11T05:05:32.679Z,832
2018-09-11T05:06:33.354Z,892
2018-09-11T05:07:34.031Z,944
2018-09-11T05:08:34.706Z,976
2018-09-11T05:09:35.385Z,1000
2018-09-11T05:10:36.062Z,1020
2018-09-11T05:11:36.737Z,1036
2018-09-11T05:12:37.413Z,1040
2018-09-11T05:13:38.090Z,1052
2018-09-11T05:14:38.768Z,1076
2018-09-11T05:15:39.444Z,1112
2018-09-11T05:16:40.123Z,1160
2018-09-11T05:17:40.798Z,1220
2018-09-11T05:18:41.476Z,1280
2018-09-11T05:19:42.152Z,1340
2018-09-11T05:20:42.829Z,1392
2018-09-11T05:21:43.506Z,1444
2018-09-11T05:22:44.183Z,1492
2018-09-11T05:23:44.902Z,1532
2018-09-11T05:24:45.579Z,1576
2018-09-11T05:25:46.259Z,1628
2018-09-11T05:26:46.933Z,1672
2018-09-11T05:27:47.611Z,1716
2018-09-11T05:28:48.288Z,1768
2018-09-11T05:29:48.964Z,1820
2018-09-11T05:30:49.643Z,1880
2018-09-11T05:31:50.320Z,1956
2018-09-11T05:32:50.998Z,2036
2018-09-11T05:33:51.675Z,2120
2018-09-11T05:34:52.355Z,2192
2018-09-11T05:35:53.030Z,2260
2018-09-11T05:36:53.708Z,2408
2018-09-11T05:37:54.386Z,2572
2018-09-11T05:38:55.099Z,2712
2018-09-11T05:39:55.742Z,2808
2018-09-11T05:40:56.418Z,2852
2018-09-11T05:41:57.096Z,2908
2018-09-11T05:42:57.775Z,2912
2018-09-11T05:43:58.449Z,2960
2018-09-11T05:44:59.132Z,2960
2018-09-11T05:45:59.807Z,2900
2018-09-11T05:47:00.521Z,2812
2018-09-11T05:48:01.195Z,2812
2018-09-11T05:49:01.872Z,2900
2018-09-11T05:50:02.550Z,3024
2018-09-11T05:51:03.227Z,3080
2018-09-11T05:52:03.903Z,3064
2018-09-11T05:53:04.583Z,3156
2018-09-11T05:54:05.259Z,3220
2018-09-11T05:55:05.936Z,3272
2018-09-11T05:56:06.637Z,3340
2018-09-11T05:57:07.334Z,3376
2018-09-11T05:58:08.012Z,3340
2018-09-11T05:59:08.689Z,3360
2018-09-11T06:00:09.368Z,3400
2018-09-11T06:01:10.088Z,3424
2018-09-11T06:02:10.765Z,3484
2018-09-11T06:03:11.442Z,3548
2018-09-11T06:04:12.119Z,3620
2018-09-11T06:05:12.797Z,3652
2018-09-11T06:06:13.474Z,3664
2018-09-11T06:07:14.155Z,3700
2018-09-11T06:08:14.830Z,3724
2018-09-11T06:09:15.511Z,3740
2018-09-11T06:10:16.189Z,3736
2018-09-11T06:11:16.864Z,3700
2018-09-11T06:12:17.543Z,3656
2018-09-11T06:13:18.221Z,3596
2018-09-11T06:14:18.900Z,3616
2018-09-11T06:15:19.619Z,3596
2018-09-11T06:16:20.403Z,3512
2018-09-11T06:17:21.017Z,3596
2018-09-11T06:18:21.737Z,3492
2018-09-11T06:19:22.416Z,3432
2018-09-11T06:20:23.093Z,3584
2018-09-11T06:21:23.772Z,3708
2018-09-11T06:22:24.449Z,3824
2018-09-11T06:23:25.127Z,3916
2018-09-11T06:24:25.804Z,4052
2018-09-11T06:25:26.484Z,4084
2018-09-11T06:26:27.162Z,4048
2018-09-11T06:27:27.839Z,4028
2018-09-11T06:28:28.517Z,4032
2018-09-11T06:29:29.197Z,4040
2018-09-11T06:30:29.873Z,4108
2018-09-11T06:31:30.549Z,4120
2018-09-11T06:32:31.230Z,4156
2018-09-11T06:33:31.910Z,4236
2018-09-11T06:34:32.590Z,4224
2018-09-11T06:35:33.309Z,4332
2018-09-11T06:36:33.947Z,4404
2018-09-11T06:37:34.625Z,4548
2018-09-11T06:38:35.304Z,4664
2018-09-11T06:39:35.982Z,4752
2018-09-11T06:40:36.661Z,4820
2018-09-11T06:41:37.341Z,4800
2018-09-11T06:42:38.021Z,4692
2018-09-11T06:43:38.700Z,4616
2018-09-11T06:44:39.435Z,4660
2018-09-11T06:45:40.057Z,4660
2018-09-11T06:46:40.736Z,4600
2018-09-11T06:47:41.416Z,4608
2018-09-11T06:48:42.133Z,4580
2018-09-11T06:49:42.813Z,4488
2018-09-11T06:50:43.491Z,4428
2018-09-11T06:51:44.168Z,4440
2018-09-11T06:52:44.847Z,4432
2018-09-11T06:53:45.525Z,4508
2018-09-11T06:54:46.273Z,4404
2018-09-11T06:55:46.883Z,4360
2018-09-11T06:56:47.563Z,4620
2018-09-11T06:57:48.241Z,4732
2018-09-11T06:58:48.921Z,4960
2018-09-11T06:59:49.605Z,5040
2018-09-11T07:00:50.330Z,5040
2018-09-11T07:01:51.032Z,5112
2018-09-11T07:02:51.687Z,5420
2018-09-11T07:03:52.367Z,5412
2018-09-11T07:04:53.069Z,5464
2018-09-11T07:05:53.769Z,5424
2018-09-11T07:06:54.455Z,5656
2018-09-11T07:07:55.127Z,5436
2018-09-11T07:08:55.811Z,5076
2018-09-11T07:09:56.531Z,5564
2018-09-11T07:10:57.212Z,5316
2018-09-11T07:11:57.935Z,6000
2018-09-11T07:12:58.656Z,9612
2018-09-11T07:13:59.337Z,11456
2018-09-11T07:15:00.016Z,9864
2018-09-11T07:16:00.697Z,8752
2018-09-11T07:17:01.379Z,8564
2018-09-11T07:18:02.099Z,8212
2018-09-11T07:19:02.781Z,8052
2018-09-11T07:20:03.612Z,8092
2018-09-11T07:21:04.142Z,8276
2018-09-11T07:22:04.864Z,8060
2018-09-11T07:23:05.544Z,6736
2018-09-11T07:24:06.223Z,7668
2018-09-11T07:25:06.904Z,7596
2018-09-11T07:26:07.681Z,7288
2018-09-11T07:27:08.269Z,7200
2018-09-11T07:28:08.952Z,6160
2018-09-11T07:29:09.675Z,6420
2018-09-11T07:30:10.357Z,5772
2018-09-11T07:31:11.037Z,6804
2018-09-11T07:32:11.720Z,6448
2018-09-11T07:33:12.400Z,6700
2018-09-11T07:34:13.082Z,6700
2018-09-11T07:35:13.766Z,6556
2018-09-11T07:36:14.459Z,6364
2018-09-11T07:37:15.132Z,6212
2018-09-11T07:38:15.815Z,6168
2018-09-11T07:39:16.498Z,6088
2018-09-11T07:40:17.183Z,5840
2018-09-11T07:41:17.869Z,5736
2018-09-11T07:42:18.548Z,5588
2018-09-11T07:43:19.232Z,5700
2018-09-11T07:44:19.914Z,5484
2018-09-11T07:45:20.656Z,5584
2018-09-11T07:46:21.291Z,5468
2018-09-11T07:47:21.967Z,5280
2018-09-11T07:48:22.653Z,5636
2018-09-11T07:49:23.335Z,5548
2018-09-11T07:50:24.021Z,5612
2018-09-11T07:51:24.703Z,5492
2018-09-11T07:52:25.437Z,5188
2018-09-11T07:53:26.072Z,5016
2018-09-11T07:54:26.755Z,4848
2018-09-11T07:55:27.441Z,4460
2018-09-11T07:56:28.125Z,5008
2018-09-11T07:57:28.852Z,5212
2018-09-11T07:58:29.495Z,5228
2018-09-11T07:59:30.182Z,5140
2018-09-11T08:00:30.865Z,5208
2018-09-11T08:01:31.551Z,5200
2018-09-11T08:02:32.236Z,5124
2018-09-11T08:03:32.921Z,5112
2018-09-11T08:04:33.648Z,5148
2018-09-11T08:05:34.335Z,5072
2018-09-11T08:06:35.019Z,4996
2018-09-11T08:07:35.704Z,4904
2018-09-11T08:08:36.390Z,4872
2018-09-11T08:09:37.144Z,4884
2018-09-11T08:10:37.760Z,4744
2018-09-11T08:11:38.447Z,4744
2018-09-11T08:12:39.133Z,4844
2018-09-11T08:13:39.817Z,4936
2018-09-11T08:14:40.503Z,4952
2018-09-11T08:15:41.188Z,4952
2018-09-11T08:16:41.874Z,4920
2018-09-11T08:17:42.565Z,4904
2018-09-11T08:18:43.244Z,4872
2018-09-11T08:19:43.938Z,4864
2018-09-11T08:20:44.616Z,4876
2018-09-11T08:21:45.303Z,4524
2018-09-11T08:22:45.990Z,4452
2018-09-11T08:23:46.675Z,4508
2018-09-11T08:24:47.362Z,4524
2018-09-11T08:25:48.093Z,4740
2018-09-11T08:26:48.733Z,4604
2018-09-11T08:27:49.424Z,4500
2018-09-11T08:28:50.111Z,4516
2018-09-11T08:29:50.798Z,4516
2018-09-11T08:30:51.526Z,4536
2018-09-11T08:31:52.211Z,4692
2018-09-11T08:32:52.896Z,4796
2018-09-11T08:33:53.581Z,4732
2018-09-11T08:34:54.266Z,4900
2018-09-11T08:35:54.952Z,4956
2018-09-11T08:36:55.637Z,4900
2018-09-11T08:37:56.329Z,5056
2018-09-11T08:38:57.017Z,5008
2018-09-11T08:39:57.701Z,4592
2018-09-11T08:40:58.453Z,5008
2018-09-11T08:41:59.116Z,4948
2018-09-11T08:42:59.808Z,4964
2018-09-11T08:44:00.490Z,4972
2018-09-11T08:45:01.177Z,4928
2018-09-11T08:46:01.912Z,4796
2018-09-11T08:47:02.597Z,4896
2018-09-11T08:48:03.285Z,4960
2018-09-11T08:49:03.968Z,4832
2018-09-11T08:50:04.655Z,4788
2018-09-11T08:51:05.392Z,4852
2018-09-11T08:52:06.128Z,5076
2018-09-11T08:53:06.768Z,5020
2018-09-11T08:54:07.450Z,5152
2018-09-11T08:55:08.136Z,5136
2018-09-11T08:56:08.821Z,5092
2018-09-11T08:57:09.508Z,4912
2018-09-11T08:58:10.192Z,4676
2018-09-11T08:59:10.877Z,4856
2018-09-11T09:00:11.565Z,5016
2018-09-11T09:01:12.248Z,4916
2018-09-11T09:02:12.936Z,4884
2018-09-11T09:03:13.621Z,4532
2018-09-11T09:04:14.306Z,4512
2018-09-11T09:05:15.003Z,4628
2018-09-11T09:06:15.680Z,4564
2018-09-11T09:07:16.362Z,4540
2018-09-11T09:08:17.047Z,4568
2018-09-11T09:09:17.734Z,4492
2018-09-11T09:10:18.419Z,4652
2018-09-11T09:11:19.104Z,4464
2018-09-11T09:12:19.793Z,4760
2018-09-11T09:13:20.478Z,5028
2018-09-11T09:14:21.164Z,5056
2018-09-11T09:15:21.849Z,5052
2018-09-11T09:16:22.535Z,5104
2018-09-11T09:17:23.222Z,5048
2018-09-11T09:18:23.908Z,4600
2018-09-11T09:19:24.593Z,4348
2018-09-11T09:20:25.301Z,4740
2018-09-11T09:21:26.008Z,4764
2018-09-11T09:22:26.691Z,4564
2018-09-11T09:23:27.381Z,4984
2018-09-11T09:24:28.103Z,5056
2018-09-11T09:25:28.790Z,5140
2018-09-11T09:26:29.476Z,4848
2018-09-11T09:27:30.188Z,4688
2018-09-11T09:28:30.847Z,4548
2018-09-11T09:29:31.532Z,4444
2018-09-11T09:30:32.220Z,4400
2018-09-11T09:31:32.903Z,4404
2018-09-11T09:32:33.587Z,4280
2018-09-11T09:33:34.271Z,4356
2018-09-11T09:34:34.956Z,4484
2018-09-11T09:35:35.646Z,4620
2018-09-11T09:36:36.345Z,4728
2018-09-11T09:37:37.016Z,4764
2018-09-11T09:38:37.696Z,4964
2018-09-11T09:39:38.387Z,5088
2018-09-11T09:40:39.108Z,5288
2018-09-11T09:41:39.794Z,5800
2018-09-11T09:42:40.520Z,6096
2018-09-11T09:43:41.206Z,6060
2018-09-11T09:44:41.890Z,6108
2018-09-11T09:45:42.577Z,6112
2018-09-11T09:46:43.261Z,6308
2018-09-11T09:47:43.945Z,6420
2018-09-11T09:48:44.630Z,6584
2018-09-11T09:49:45.314Z,6808
2018-09-11T09:50:46.032Z,7080
2018-09-11T09:51:46.685Z,7176
2018-09-11T09:52:47.368Z,7480
2018-09-11T09:53:48.053Z,7772
2018-09-11T09:54:48.738Z,7608
2018-09-11T09:55:49.422Z,7796
2018-09-11T09:56:50.109Z,7740
2018-09-11T09:57:50.790Z,7804
2018-09-11T09:58:51.477Z,7700
2018-09-11T09:59:52.158Z,7540
2018-09-11T10:00:52.841Z,7484
2018-09-11T10:01:53.527Z,7408
2018-09-11T10:02:54.210Z,7428
2018-09-11T10:03:54.893Z,7320
2018-09-11T10:04:55.659Z,7364
2018-09-11T10:05:56.262Z,7064
2018-09-11T10:06:56.946Z,6904
2018-09-11T10:07:57.629Z,6880
2018-09-11T10:08:58.313Z,6776
2018-09-11T10:09:58.997Z,6584
2018-09-11T10:10:59.680Z,6572
2018-09-11T10:12:00.366Z,6372
2018-09-11T10:13:01.049Z,6408
2018-09-11T10:14:01.734Z,6168
2018-09-11T10:15:02.420Z,6172
2018-09-11T10:16:03.105Z,5888
2018-09-11T10:17:03.786Z,5720
2018-09-11T10:18:04.472Z,5624
2018-09-11T10:19:05.155Z,5680
2018-09-11T10:20:05.840Z,5760
2018-09-11T10:21:06.563Z,5736
2018-09-11T10:22:07.247Z,5700
2018-09-11T10:23:07.930Z,5688
2018-09-11T10:24:08.614Z,5576
2018-09-11T10:25:09.299Z,5652
2018-09-11T10:26:10.025Z,5608
2018-09-11T10:27:10.708Z,5616
2018-09-11T10:28:11.394Z,5744
2018-09-11T10:29:12.076Z,5924
2018-09-11T10:30:12.760Z,6136
2018-09-11T10:31:13.443Z,6272
2018-09-11T10:32:14.126Z,6384
2018-09-11T10:33:14.811Z,6296
2018-09-11T10:34:15.495Z,6304
2018-09-11T10:35:16.179Z,6420
2018-09-11T10:36:16.867Z,6236
2018-09-11T10:37:17.546Z,6480
2018-09-11T10:38:18.231Z,6932
2018-09-11T10:39:18.927Z,7052
2018-09-11T10:40:19.598Z,7152
2018-09-11T10:41:20.282Z,7120
2018-09-11T10:42:20.997Z,6972
2018-09-11T10:43:21.691Z,6408
2018-09-11T10:44:22.373Z,6544
2018-09-11T10:45:23.058Z,6684
2018-09-11T10:46:23.743Z,6628
2018-09-11T10:47:24.428Z,6824
2018-09-11T10:48:25.154Z,6956
2018-09-11T10:49:25.837Z,7012
2018-09-11T10:50:26.521Z,7160
2018-09-11T10:51:27.204Z,7132
2018-09-11T10:52:27.889Z,6968
2018-09-11T10:53:28.616Z,7152
2018-09-11T10:54:29.299Z,7132
2018-09-11T10:55:29.985Z,7132
2018-09-11T10:56:30.715Z,7340
2018-09-11T10:57:31.435Z,7348
2018-09-11T10:58:32.126Z,7276
2018-09-11T10:59:33.068Z,7088
2018-09-11T11:00:33.856Z,7104
2018-09-11T11:01:34.535Z,7056
2018-09-11T11:02:35.220Z,7104
2018-09-11T11:03:35.906Z,7280
2018-09-11T11:04:36.591Z,7364
2018-09-11T11:05:37.314Z,7484
2018-09-11T11:06:38.004Z,7532
2018-09-11T11:07:38.727Z,7760
2018-09-11T11:08:39.411Z,7820
2018-09-11T11:09:40.095Z,7676
2018-09-11T11:10:40.780Z,7708
2018-09-11T11:11:41.463Z,7748
2018-09-11T11:12:42.147Z,7984
2018-09-11T11:13:42.830Z,7932
2018-09-11T11:14:43.515Z,8044
2018-09-11T11:15:44.199Z,8004
2018-09-11T11:16:44.884Z,7896
2018-09-11T11:17:45.569Z,7800
2018-09-11T11:18:46.251Z,7764
2018-09-11T11:19:46.937Z,7932
2018-09-11T11:20:47.620Z,8040
2018-09-11T11:21:48.306Z,8120
2018-09-11T11:22:48.988Z,8328
2018-09-11T11:23:49.687Z,8200
2018-09-11T11:24:50.400Z,8344
2018-09-11T11:25:51.152Z,8244
2018-09-11T11:26:51.858Z,8084
2018-09-11T11:27:52.541Z,8332
2018-09-11T11:28:53.264Z,8456
2018-09-11T11:29:53.952Z,8256
2018-09-11T11:30:54.678Z,7980
2018-09-11T11:31:55.385Z,8048
2018-09-11T11:32:56.120Z,7908
2018-09-11T11:33:56.817Z,7888
2018-09-11T11:34:57.500Z,7868
2018-09-11T11:35:58.211Z,7916
2018-09-11T11:36:59.012Z,7868
2018-09-11T11:37:59.553Z,7688
2018-09-11T11:39:00.239Z,7628
2018-09-11T11:40:00.923Z,7664
2018-09-11T11:41:01.608Z,7476
2018-09-11T11:42:02.291Z,7400
2018-09-11T11:43:02.976Z,7292
2018-09-11T11:44:03.660Z,7356
2018-09-11T11:45:04.347Z,7160
2018-09-11T11:46:05.051Z,6904
2018-09-11T11:47:05.758Z,7092
2018-09-11T11:48:06.492Z,7056
2018-09-11T11:49:07.125Z,7048
2018-09-11T11:50:07.808Z,6944
2018-09-11T11:51:08.494Z,6760
2018-09-11T11:52:09.177Z,6652
2018-09-11T11:53:09.861Z,6552
2018-09-11T11:54:10.547Z,6508
2018-09-11T11:55:11.332Z,6488
2018-09-11T11:56:11.918Z,6312
2018-09-11T11:57:12.601Z,6244
2018-09-11T11:58:13.289Z,6236
2018-09-11T11:59:14.014Z,6332
2018-09-11T12:00:14.696Z,6092
2018-09-11T12:01:15.379Z,6148
2018-09-11T12:02:16.065Z,6104
2018-09-11T12:03:16.750Z,5856
2018-09-11T12:04:17.434Z,5976
2018-09-11T12:06:04.513Z,6252
2018-09-11T12:07:05.199Z,6492
2018-09-11T12:08:05.890Z,6576
2018-09-11T12:09:06.610Z,6224
2018-09-11T12:10:07.297Z,6088
2018-09-11T12:11:07.978Z,5992
2018-09-11T12:12:08.663Z,6064
2018-09-11T12:13:09.348Z,6308
2018-09-11T12:14:10.031Z,6280
2018-09-11T12:15:10.718Z,6144
2018-09-11T12:16:11.428Z,5492
2018-09-11T12:17:12.109Z,5360
2018-09-11T12:18:12.813Z,5004
2018-09-11T12:19:13.496Z,5680
2018-09-11T12:20:14.180Z,6068
2018-09-11T12:21:14.865Z,6152
2018-09-11T12:22:15.547Z,5672
2018-09-11T12:23:16.232Z,5748
2018-09-11T12:24:16.915Z,5800
2018-09-11T12:25:17.602Z,6032
2018-09-11T12:26:18.324Z,5828
2018-09-11T12:27:18.969Z,5888
2018-09-11T12:28:19.655Z,5932
2018-09-11T12:29:20.339Z,6172
2018-09-11T12:30:21.023Z,6388
2018-09-11T12:31:21.707Z,6528
2018-09-11T12:32:22.399Z,6156
2018-09-11T12:33:23.073Z,6156
2018-09-11T12:34:23.758Z,6096
2018-09-11T12:35:24.441Z,6012
2018-09-11T12:36:25.126Z,5996
2018-09-11T12:37:25.809Z,5968
2018-09-11T12:38:26.493Z,5772
2018-09-11T12:39:27.177Z,5588
2018-09-11T12:40:27.860Z,5408
2018-09-11T12:41:28.548Z,5248
2018-09-11T12:42:29.234Z,5448
2018-09-11T12:43:29.914Z,5440
2018-09-11T12:44:30.599Z,5244
2018-09-11T12:45:31.293Z,5092
2018-09-11T12:46:32.388Z,5216
2018-09-11T12:47:33.037Z,5672
2018-09-11T12:48:33.486Z,5672
2018-09-11T12:49:34.099Z,6036
2018-09-11T12:50:34.779Z,5856
2018-09-11T12:51:35.468Z,5924
2018-09-11T12:52:36.252Z,5868
2018-09-11T12:53:36.873Z,5620
2018-09-11T12:54:37.557Z,5848
2018-09-11T12:55:38.244Z,5480
2018-09-11T12:56:38.924Z,5444
2018-09-11T12:57:39.607Z,4944
2018-09-11T12:58:40.292Z,4916
2018-09-11T12:59:40.977Z,4952
2018-09-11T13:00:41.660Z,5220
2018-09-11T13:01:42.345Z,5736
2018-09-11T13:02:43.030Z,5800
2018-09-11T13:03:43.713Z,5580
2018-09-11T13:04:44.398Z,5552
2018-09-11T13:05:45.081Z,5456
2018-09-11T13:06:45.808Z,5312
2018-09-11T13:07:46.525Z,4932
2018-09-11T13:08:47.216Z,4912
2018-09-11T13:09:47.900Z,5148
2018-09-11T13:10:48.586Z,5196
2018-09-11T13:11:49.285Z,4880
2018-09-11T13:12:49.995Z,4864
2018-09-11T13:13:50.728Z,4756
2018-09-11T13:14:51.363Z,5004
2018-09-11T13:15:52.048Z,4820
2018-09-11T13:16:52.730Z,4720
2018-09-11T13:17:53.457Z,4620
2018-09-11T13:18:54.140Z,4532
2018-09-11T13:19:54.832Z,4544
2018-09-11T13:20:55.506Z,4712
2018-09-11T13:21:56.191Z,5120
2018-09-11T13:22:56.875Z,5088
2018-09-11T13:23:57.558Z,4988
2018-09-11T13:24:58.268Z,4600
2018-09-11T13:25:58.968Z,4592
2018-09-11T13:26:59.652Z,4324
2018-09-11T13:28:00.338Z,4220
2018-09-11T13:29:01.021Z,3680
2018-09-11T13:30:01.705Z,4744
2018-09-11T13:31:02.388Z,4940
2018-09-11T13:32:03.071Z,4780
2018-09-11T13:33:03.758Z,4700
2018-09-11T13:34:04.484Z,4840
2018-09-11T13:35:05.164Z,4904
2018-09-11T13:36:05.849Z,5076
2018-09-11T13:37:06.534Z,5160
2018-09-11T13:38:07.220Z,4732
2018-09-11T13:39:07.950Z,4104
2018-09-11T13:40:08.635Z,4628
2018-09-11T13:41:09.319Z,4968
2018-09-11T13:42:10.006Z,5064
2018-09-11T13:43:10.697Z,4968
2018-09-11T13:44:11.379Z,4864
2018-09-11T13:45:12.073Z,4936
2018-09-11T13:46:12.805Z,4868
2018-09-11T13:47:13.549Z,4740
2018-09-11T13:48:14.166Z,4908
2018-09-11T13:49:14.851Z,4712
2018-09-11T13:50:15.540Z,4748
2018-09-11T13:51:16.223Z,4624
2018-09-11T13:52:16.909Z,4636
2018-09-11T13:53:17.594Z,4648
2018-09-11T13:54:18.280Z,4580
2018-09-11T13:55:18.974Z,4472
2018-09-11T13:56:19.695Z,4616